BIHN

Details ICAO BIHN (HFN)
Name Hornafjordur
Region Iceland
Timezone Atlantic/Reykjavik (UTC+0.0)
Plans Departing 51
Arriving 64
Stats Elevation 23 ft / 7 m (AMSL)
Location 64.295600° -15.227200°
Runways 1
Magnetic Variation 9.871° W
Sunrise 2019-05-20 03:30:42 UTC / 2019-05-20 03:30:42 Local
Sunset 2019-05-20 22:26:59 UTC / 2019-05-20 22:26:59 Local
Advertisement - Login to hide

Runways

ID Width Length Bearing (true/mag) Surface Threshold Overrun Markings Lighting
18 98 ft / 30 m 4,925 ft / 1,501 m 167.26° / 177.13° ASPHALT 26 ft / 8 m 0 ft / 0 m APP EDGE THRESHOLD ODALS REIL-OMNI
36 98 ft / 30 m 4,925 ft / 1,501 m 347.27° / 357.14° ASPHALT 26 ft / 8 m 0 ft / 0 m APP EDGE THRESHOLD ODALS REIL-OMNI

Approach Navaids

Runway Type Ident Frequency Range Bearing (true/mag) Slope Elevation
36 OM OM - - 347.19° / 357.06° - 10 ft / 3 m (AMSL)
36 IM IM - - 347.19° / 357.06° - 30 ft / 9 m (AMSL)

Map

Weather


0- 5 10 15 20 25 30 35+ Temperature / °C

Clouds and Precipitation
Forecast for 2019-05-20 12:00 UTC. Updated 2 hours ago

Ground ~20,000 ft ~40,000 ft Winds

METAR

BIHN 201100Z 25005KT 9999 VCSH FEW008 BKN023 OVC034 08/05 Q1014

TAF

Not found

Frequencies

Tower 118.10 MHz Tower
Warning: Do not use this data for real-world aviation or navigation. No guarantee of current accuracy is given.